sensor_id;sensor_type;location;lat;lon;timestamp;P1;durP1;ratioP1;P2;durP2;ratioP2
63782;SDS011;49925;52.522;5.732;2022-08-21T03:05:33;18.80;;;9.55;;
63782;SDS011;49925;52.522;5.732;2022-08-21T03:08:07;20.90;;;10.23;;
63782;SDS011;49925;52.522;5.732;2022-08-21T03:10:37;23.13;;;10.27;;
63782;SDS011;49925;52.522;5.732;2022-08-21T03:13:06;22.88;;;10.63;;
63782;SDS011;49925;52.522;5.732;2022-08-21T03:15:33;21.55;;;9.90;;
63782;SDS011;49925;52.522;5.732;2022-08-21T03:18:01;23.35;;;9.68;;
63782;SDS011;49925;52.522;5.732;2022-08-21T03:20:31;24.02;;;9.90;;
63782;SDS011;49925;52.522;5.732;2022-08-21T03:23:01;23.52;;;9.07;;
63782;SDS011;49925;52.522;5.732;2022-08-21T03:25:38;26.08;;;10.45;;
63782;SDS011;49925;52.522;5.732;2022-08-21T03:28:08;22.80;;;10.20;;
63782;SDS011;49925;52.522;5.732;2022-08-21T03:30:43;21.52;;;10.25;;
63782;SDS011;49925;52.522;5.732;2022-08-21T03:33:12;24.02;;;10.65;;
63782;SDS011;49925;52.522;5.732;2022-08-21T03:35:45;32.58;;;10.20;;
63782;SDS011;49925;52.522;5.732;2022-08-21T03:38:15;26.92;;;9.60;;
63782;SDS011;49925;52.522;5.732;2022-08-21T03:40:43;29.75;;;9.73;;
63782;SDS011;49925;52.522;5.732;2022-08-21T03:43:10;30.52;;;11.02;;
63782;SDS011;49925;52.522;5.732;2022-08-21T03:45:37;32.17;;;9.98;;
63782;SDS011;49925;52.522;5.732;2022-08-21T03:48:05;32.97;;;10.85;;
63782;SDS011;49925;52.522;5.732;2022-08-21T03:50:34;24.45;;;11.07;;
63782;SDS011;49925;52.522;5.732;2022-08-21T03:53:07;32.90;;;11.65;;
63782;SDS011;49925;52.522;5.732;2022-08-21T03:55:42;22.75;;;10.85;;
63782;SDS011;49925;52.522;5.732;2022-08-21T05:30:09;27.42;;;9.63;;
63782;SDS011;49925;52.522;5.732;2022-08-21T05:32:36;24.10;;;9.98;;
63782;SDS011;49925;52.522;5.732;2022-08-21T05:35:04;26.90;;;10.25;;
63782;SDS011;49925;52.522;5.732;2022-08-21T05:37:33;27.02;;;10.18;;
63782;SDS011;49925;52.522;5.732;2022-08-21T07:20:31;32.13;;;9.35;;
63782;SDS011;49925;52.522;5.732;2022-08-21T07:23:03;33.83;;;9.88;;
63782;SDS011;49925;52.522;5.732;2022-08-21T07:30:27;26.20;;;8.48;;
63782;SDS011;49925;52.522;5.732;2022-08-21T07:32:54;34.00;;;9.70;;
63782;SDS011;49925;52.522;5.732;2022-08-21T07:35:23;28.75;;;8.35;;
63782;SDS011;49925;52.522;5.732;2022-08-21T07:37:50;29.80;;;8.38;;
63782;SDS011;49925;52.522;5.732;2022-08-21T07:40:18;33.47;;;9.05;;
63782;SDS011;49925;52.522;5.732;2022-08-21T07:42:46;45.10;;;8.73;;
63782;SDS011;49925;52.522;5.732;2022-08-21T07:45:16;37.15;;;8.85;;
63782;SDS011;49925;52.522;5.732;2022-08-21T07:47:49;38.60;;;9.57;;
63782;SDS011;49925;52.522;5.732;2022-08-21T07:50:22;32.28;;;8.85;;
63782;SDS011;49925;52.522;5.732;2022-08-21T07:52:50;34.35;;;9.07;;
63782;SDS011;49925;52.522;5.732;2022-08-21T07:55:19;42.40;;;9.82;;
63782;SDS011;49925;52.522;5.732;2022-08-21T09:03:46;37.85;;;8.10;;
63782;SDS011;49925;52.522;5.732;2022-08-21T09:09:05;27.73;;;6.80;;
63782;SDS011;49925;52.522;5.732;2022-08-21T23:37:11;23.33;;;4.88;;
63782;SDS011;49925;52.522;5.732;2022-08-21T23:40:21;16.50;;;5.00;;
